createdAt,value
2022-08-26T18:16:26.662Z,19.80
2022-08-26T18:18:55.361Z,19.60
2022-08-26T18:21:25.393Z,19.40
2022-08-26T18:23:54.291Z,19.30
2022-08-26T18:26:25.313Z,19.10
2022-08-26T18:28:53.670Z,19.00
2022-08-26T18:31:21.897Z,18.80
2022-08-26T18:33:51.966Z,18.70
2022-08-26T18:36:22.630Z,18.60
2022-08-26T18:38:51.546Z,18.50
2022-08-26T18:41:21.788Z,18.50
2022-08-26T18:43:50.785Z,18.40
2022-08-26T18:46:20.067Z,18.30
2022-08-26T18:48:50.949Z,18.30
2022-08-26T18:51:22.536Z,18.30
2022-08-26T18:53:50.917Z,18.10
2022-08-26T18:56:19.772Z,18.00
2022-08-26T18:58:48.145Z,17.90
2022-08-26T19:01:17.137Z,17.80
2022-08-26T19:03:45.435Z,17.80
2022-08-26T19:06:15.132Z,17.80
2022-08-26T19:08:45.305Z,17.70
2022-08-26T19:11:18.542Z,17.60
2022-08-26T19:14:00.295Z,17.70
2022-08-26T19:16:29.139Z,17.70
2022-08-26T19:18:58.843Z,17.70
2022-08-26T19:21:27.006Z,17.60
2022-08-26T19:23:59.393Z,17.60
2022-08-26T19:26:28.459Z,17.50
2022-08-26T19:28:56.768Z,17.40
2022-08-26T19:31:24.970Z,17.40
2022-08-26T19:33:53.396Z,17.30
2022-08-26T19:36:24.841Z,17.20
2022-08-26T19:38:53.725Z,17.20
2022-08-26T19:41:29.487Z,17.10
2022-08-26T19:44:07.584Z,17.00
2022-08-26T19:46:35.951Z,17.00
2022-08-26T19:49:04.754Z,17.00
2022-08-26T19:51:34.875Z,17.00
2022-08-26T19:54:03.772Z,17.00
2022-08-26T19:56:33.286Z,17.00
2022-08-26T19:59:01.690Z,17.00
2022-08-26T20:01:30.679Z,17.00
2022-08-26T20:03:58.843Z,17.10
2022-08-26T20:06:26.917Z,17.00
2022-08-26T20:08:55.030Z,17.00
2022-08-26T20:11:24.843Z,17.00
2022-08-26T20:13:55.207Z,16.90
2022-08-26T20:16:23.368Z,16.90
2022-08-26T20:19:08.887Z,16.90
2022-08-26T20:21:39.938Z,16.90
2022-08-26T20:24:11.487Z,16.90
2022-08-26T20:26:41.910Z,16.80
2022-08-26T20:29:13.195Z,16.80
2022-08-26T20:31:44.102Z,16.80
2022-08-26T20:34:13.341Z,16.70
2022-08-26T20:36:42.482Z,16.70
2022-08-26T20:39:11.808Z,16.60
2022-08-26T20:41:40.398Z,16.60
2022-08-26T20:44:09.504Z,16.50
2022-08-26T20:46:38.998Z,16.50
2022-08-26T20:49:08.299Z,16.50
2022-08-26T20:51:38.578Z,16.50
2022-08-26T20:54:07.880Z,16.40
2022-08-26T20:56:36.417Z,16.30
2022-08-26T20:59:06.921Z,16.20
2022-08-26T21:01:37.374Z,16.20
2022-08-26T21:04:14.528Z,16.10
2022-08-26T21:06:49.406Z,16.00
2022-08-26T21:09:21.376Z,16.00
2022-08-26T21:11:49.980Z,16.00
2022-08-26T21:14:20.509Z,16.00
2022-08-26T21:16:49.105Z,16.00
2022-08-26T21:19:19.893Z,15.90
2022-08-26T21:21:49.128Z,15.90
2022-08-26T21:24:17.941Z,15.90
2022-08-26T21:26:46.550Z,15.80
2022-08-26T21:29:15.022Z,15.80
2022-08-26T21:31:46.594Z,15.80
2022-08-26T21:34:15.371Z,15.70
2022-08-26T21:36:45.108Z,15.70
2022-08-26T21:39:13.865Z,15.80
2022-08-26T21:41:43.345Z,15.70
2022-08-26T21:44:12.659Z,15.60
2022-08-26T21:46:41.243Z,15.60
2022-08-26T21:49:11.468Z,15.60
2022-08-26T21:51:41.832Z,15.40
2022-08-26T21:54:12.236Z,15.40
2022-08-26T21:56:44.294Z,15.30
2022-08-26T21:59:12.972Z,15.30
2022-08-26T22:01:42.211Z,15.20
2022-08-26T22:04:11.332Z,15.30
2022-08-26T22:06:45.245Z,15.30
2022-08-26T22:09:16.345Z,15.20
2022-08-26T22:11:45.887Z,15.20
2022-08-26T22:14:14.277Z,15.20
2022-08-26T22:16:50.158Z,15.10
2022-08-26T22:19:20.139Z,15.10
2022-08-26T22:21:50.072Z,15.00
2022-08-26T22:24:20.478Z,14.90
2022-08-26T22:26:49.665Z,14.90
2022-08-26T22:29:18.772Z,14.90
2022-08-26T22:31:47.315Z,15.00
2022-08-26T22:34:19.584Z,15.00
2022-08-26T22:36:50.181Z,14.90
2022-08-26T22:39:22.334Z,14.80
2022-08-26T22:41:51.326Z,14.80
2022-08-26T22:44:21.590Z,14.90
2022-08-26T22:46:51.671Z,15.00
2022-08-26T22:49:20.106Z,15.20
2022-08-26T22:51:48.384Z,15.20
2022-08-26T22:54:17.527Z,15.30
2022-08-26T22:56:47.204Z,15.50
2022-08-26T22:59:16.297Z,15.60
2022-08-26T23:01:46.400Z,15.60
2022-08-26T23:04:15.077Z,15.60
2022-08-26T23:06:47.660Z,15.60
2022-08-26T23:09:18.324Z,15.60
2022-08-26T23:11:49.464Z,15.60
2022-08-26T23:14:19.374Z,15.70
2022-08-26T23:16:47.867Z,15.70
2022-08-26T23:19:18.508Z,15.70
2022-08-26T23:21:47.053Z,15.80
2022-08-26T23:24:15.853Z,15.80
2022-08-26T23:26:44.585Z,15.90
2022-08-26T23:29:15.684Z,16.00
2022-08-26T23:31:44.166Z,16.10
2022-08-26T23:34:29.979Z,16.20
2022-08-26T23:36:59.040Z,16.20
2022-08-26T23:39:28.277Z,16.30
2022-08-26T23:41:56.987Z,16.40
2022-08-26T23:44:26.963Z,16.40
2022-08-26T23:46:55.332Z,16.40
2022-08-26T23:49:23.694Z,16.40
2022-08-26T23:52:09.298Z,16.30
2022-08-26T23:54:37.563Z,16.40
2022-08-26T23:57:06.751Z,16.60
2022-08-26T23:59:37.756Z,16.80
